Time;durP1;ratioP1;P1;durP2;ratioP2;P2;SDS_P1;SDS_P2;PMS_P1;PMS_P2;Temp;Humidity;BMP_temperature;BMP_pressure;BME280_temperature;BME280_humidity;BME280_pressure;Samples;Min_cycle;Max_cycle;Signal;HPM_P1;HPM_P2
2023/01/15 00:02:16;;;;;;;5.90;0.95;;;;;;;;;;4990884;28;20569;-62
2023/01/15 00:04:43;;;;;;;5.07;1.05;;;;;;;;;;4986209;28;20576;-61
2023/01/15 00:07:09;;;;;;;8.90;1.48;;;;;;;;;;4980225;28;20050;-62
2023/01/15 00:09:35;;;;;;;8.65;0.95;;;;;;;;;;4988084;28;20054;-61
2023/01/15 00:12:02;;;;;;;9.30;1.30;;;;;;;;;;4978140;28;20131;-61
2023/01/15 00:14:28;;;;;;;9.85;1.52;;;;;;;;;;4985378;28;20050;-62
2023/01/15 00:16:55;;;;;;;6.97;1.17;;;;;;;;;;4980208;28;20284;-61
2023/01/15 00:19:21;;;;;;;15.82;2.10;;;;;;;;;;4990947;28;20054;-63
2023/01/15 00:21:47;;;;;;;9.60;1.52;;;;;;;;;;4971361;28;20046;-62
2023/01/15 00:29:44;;;;;;;7.00;1.45;;;;;;;;;;4980181;28;20068;-62
2023/01/15 00:32:10;;;;;;;5.80;1.02;;;;;;;;;;4987036;28;20043;-63
2023/01/15 00:34:36;;;;;;;5.93;1.58;;;;;;;;;;4981138;28;20054;-62
2023/01/15 00:37:03;;;;;;;13.48;1.77;;;;;;;;;;4986358;28;20058;-62
2023/01/15 00:39:29;;;;;;;10.00;2.28;;;;;;;;;;4984716;28;20510;-64
2023/01/15 00:41:55;;;;;;;8.15;1.55;;;;;;;;;;4980048;28;20061;-62
2023/01/15 00:44:22;;;;;;;9.48;2.22;;;;;;;;;;4985332;28;20053;-62
2023/01/15 00:46:48;;;;;;;10.57;1.48;;;;;;;;;;4984346;28;20061;-62
2023/01/15 00:49:14;;;;;;;9.40;1.63;;;;;;;;;;4989182;28;20087;-63
2023/01/15 00:51:41;;;;;;;8.32;1.40;;;;;;;;;;4980202;28;20592;-64
2023/01/15 00:54:07;;;;;;;9.18;1.58;;;;;;;;;;4982197;28;20470;-64
2023/01/15 00:56:34;;;;;;;7.90;1.10;;;;;;;;;;4991143;28;20256;-61
2023/01/15 00:59:01;;;;;;;10.25;1.60;;;;;;;;;;4979779;28;20054;-60
2023/01/15 01:01:27;;;;;;;10.25;1.33;;;;;;;;;;4986973;28;20501;-62
2023/01/15 01:03:54;;;;;;;7.30;1.10;;;;;;;;;;4980735;28;20047;-64
2023/01/15 01:06:20;;;;;;;9.52;1.30;;;;;;;;;;4983793;28;20054;-63
2023/01/15 01:08:46;;;;;;;11.48;1.55;;;;;;;;;;4980504;28;20871;-61
2023/01/15 01:11:17;;;;;;;10.32;1.50;;;;;;;;;;4988613;28;20066;-61
2023/01/15 01:13:44;;;;;;;8.73;2.00;;;;;;;;;;4986465;28;20658;-67
2023/01/15 01:16:30;;;;;;;14.13;1.60;;;;;;;;;;4981431;28;20046;-62
2023/01/15 01:18:57;;;;;;;11.73;1.55;;;;;;;;;;4989017;28;20092;-60
2023/01/15 01:21:23;;;;;;;16.88;2.03;;;;;;;;;;4980156;28;20058;-62
2023/01/15 01:23:50;;;;;;;6.85;1.08;;;;;;;;;;4989213;28;20479;-61
2023/01/15 01:26:16;;;;;;;11.77;1.35;;;;;;;;;;4977332;28;20042;-63
2023/01/15 01:28:42;;;;;;;11.82;1.77;;;;;;;;;;4985671;28;20394;-62
2023/01/15 01:31:09;;;;;;;8.27;1.35;;;;;;;;;;4981537;28;20156;-62
2023/01/15 01:33:35;;;;;;;12.45;1.75;;;;;;;;;;4984733;28;20060;-62
2023/01/15 01:36:02;;;;;;;12.27;1.40;;;;;;;;;;4988445;28;20050;-63
2023/01/15 01:38:29;;;;;;;11.25;2.20;;;;;;;;;;4978702;28;20490;-62
2023/01/15 01:40:55;;;;;;;10.98;1.48;;;;;;;;;;4969261;28;20057;-61
2023/01/15 01:43:23;;;;;;;8.90;1.92;;;;;;;;;;4978612;28;20105;-64
2023/01/15 01:45:50;;;;;;;8.40;1.33;;;;;;;;;;4981931;28;20060;-63
2023/01/15 01:48:19;;;;;;;6.93;1.23;;;;;;;;;;4984285;28;20053;-61
2023/01/15 01:50:47;;;;;;;7.55;1.55;;;;;;;;;;4963874;28;20128;-62
2023/01/15 01:53:16;;;;;;;9.05;1.20;;;;;;;;;;4987631;28;20100;-62
2023/01/15 01:55:43;;;;;;;9.73;1.20;;;;;;;;;;4978878;28;20151;-62
2023/01/15 01:58:10;;;;;;;11.73;1.85;;;;;;;;;;4985138;28;20042;-62
2023/01/15 02:00:38;;;;;;;6.27;1.37;;;;;;;;;;4976387;28;20492;-62
2023/01/15 02:03:06;;;;;;;9.80;1.50;;;;;;;;;;4988533;28;20054;-62
2023/01/15 02:05:36;;;;;;;11.70;1.23;;;;;;;;;;4988283;28;20046;-64
2023/01/15 02:08:02;;;;;;;17.63;2.17;;;;;;;;;;4982215;28;20056;-62
2023/01/15 02:10:29;;;;;;;8.38;1.83;;;;;;;;;;4983224;28;20054;-62
2023/01/15 02:13:00;;;;;;;5.75;1.35;;;;;;;;;;4976876;28;20581;-62
2023/01/15 02:15:36;;;;;;;8.30;1.42;;;;;;;;;;4982665;28;20050;-62
2023/01/15 02:18:06;;;;;;;4.50;1.10;;;;;;;;;;4978789;28;20706;-63
2023/01/15 02:20:40;;;;;;;7.20;1.20;;;;;;;;;;4982979;28;20050;-64
2023/01/15 02:23:06;;;;;;;8.60;1.33;;;;;;;;;;4979020;28;20053;-62
2023/01/15 02:25:48;;;;;;;9.32;1.23;;;;;;;;;;4977722;28;20092;-62
2023/01/15 02:28:17;;;;;;;7.18;1.38;;;;;;;;;;4980467;28;20046;-61
2023/01/15 02:30:46;;;;;;;12.13;2.60;;;;;;;;;;4979407;28;20053;-63
2023/01/15 02:33:18;;;;;;;7.15;1.52;;;;;;;;;;4984535;28;20046;-63
2023/01/15 02:35:49;;;;;;;8.35;1.20;;;;;;;;;;4980228;28;20051;-61
2023/01/15 02:38:16;;;;;;;11.45;1.40;;;;;;;;;;4987606;28;20050;-62
2023/01/15 02:40:44;;;;;;;7.00;0.97;;;;;;;;;;4983763;28;20093;-64
2023/01/15 02:43:12;;;;;;;14.43;1.60;;;;;;;;;;4978654;28;20046;-61
2023/01/15 02:45:40;;;;;;;6.32;1.20;;;;;;;;;;4988340;28;20046;-62
2023/01/15 02:48:14;;;;;;;8.07;1.45;;;;;;;;;;4978995;28;20504;-62
2023/01/15 02:50:46;;;;;;;12.30;1.73;;;;;;;;;;4987461;28;20470;-63
2023/01/15 02:53:16;;;;;;;9.23;1.83;;;;;;;;;;4977181;28;20049;-61
2023/01/15 02:55:44;;;;;;;15.52;1.85;;;;;;;;;;4978183;28;20050;-61
2023/01/15 02:58:12;;;;;;;8.52;1.42;;;;;;;;;;4979169;28;20136;-61
2023/01/15 03:00:40;;;;;;;12.95;1.30;;;;;;;;;;4986807;28;20088;-63
2023/01/15 03:03:12;;;;;;;10.35;1.25;;;;;;;;;;4988914;28;20136;-61
2023/01/15 03:05:44;;;;;;;8.20;1.75;;;;;;;;;;4979521;28;20133;-62
2023/01/15 03:08:11;;;;;;;4.53;1.02;;;;;;;;;;4980218;28;20064;-61
2023/01/15 03:10:41;;;;;;;7.95;1.48;;;;;;;;;;4971860;28;20700;-61
2023/01/15 03:13:10;;;;;;;12.05;1.35;;;;;;;;;;4985946;28;20101;-62
2023/01/15 03:18:34;;;;;;;4.53;1.15;;;;;;;;;;4993985;28;20046;-61
2023/01/15 03:21:04;;;;;;;7.47;1.85;;;;;;;;;;4986162;28;20054;-64
2023/01/15 03:23:32;;;;;;;16.60;1.40;;;;;;;;;;4978886;28;20140;-62
2023/01/15 03:25:59;;;;;;;10.15;1.95;;;;;;;;;;4991872;28;20054;-63
2023/01/15 03:28:30;;;;;;;6.80;2.00;;;;;;;;;;4999464;28;20085;-61
2023/01/15 03:30:57;;;;;;;9.30;1.35;;;;;;;;;;5001470;28;20050;-66
2023/01/15 03:33:25;;;;;;;10.02;1.67;;;;;;;;;;4985693;28;20057;-66
2023/01/15 03:35:57;;;;;;;8.93;1.20;;;;;;;;;;4990273;28;20054;-65
2023/01/15 03:38:28;;;;;;;9.40;1.40;;;;;;;;;;4988238;28;20050;-65
2023/01/15 03:40:54;;;;;;;5.47;1.10;;;;;;;;;;4989100;28;20062;-66
2023/01/15 03:43:39;;;;;;;13.95;2.05;;;;;;;;;;4999521;28;20577;-66
2023/01/15 03:46:08;;;;;;;9.50;1.60;;;;;;;;;;4989931;28;20049;-66
2023/01/15 03:48:55;;;;;;;4.57;1.10;;;;;;;;;;4991444;28;20443;-65
2023/01/15 03:51:24;;;;;;;14.00;1.95;;;;;;;;;;4989036;28;20071;-66
2023/01/15 03:53:55;;;;;;;4.70;1.30;;;;;;;;;;4989956;28;20046;-66
2023/01/15 03:56:35;;;;;;;6.97;1.27;;;;;;;;;;4985049;28;20054;-66
2023/01/15 03:59:05;;;;;;;10.70;1.42;;;;;;;;;;4993335;28;20050;-66
2023/01/15 04:01:35;;;;;;;9.82;1.85;;;;;;;;;;4985763;28;20897;-65
2023/01/15 04:04:03;;;;;;;8.60;1.15;;;;;;;;;;4987454;28;20574;-66
2023/01/15 04:06:30;;;;;;;8.60;1.67;;;;;;;;;;4989634;28;20077;-66
2023/01/15 04:08:57;;;;;;;8.55;1.38;;;;;;;;;;4985180;28;20061;-66
2023/01/15 04:11:25;;;;;;;12.45;1.90;;;;;;;;;;4990993;28;20050;-65
2023/01/15 04:13:51;;;;;;;3.25;0.75;;;;;;;;;;4990486;28;20060;-65
2023/01/15 04:16:25;;;;;;;12.23;1.70;;;;;;;;;;5005131;28;20050;-65
2023/01/15 04:18:52;;;;;;;7.82;1.40;;;;;;;;;;4979530;28;20074;-65
2023/01/15 04:21:18;;;;;;;11.00;1.50;;;;;;;;;;4982099;28;20145;-66
2023/01/15 04:23:45;;;;;;;9.68;1.50;;;;;;;;;;4988352;28;20668;-66
2023/01/15 04:26:12;;;;;;;10.30;1.75;;;;;;;;;;4990323;28;20652;-65
2023/01/15 04:28:38;;;;;;;9.27;1.35;;;;;;;;;;4992182;28;20054;-65
2023/01/15 04:31:04;;;;;;;6.57;1.25;;;;;;;;;;4983033;28;20125;-65
2023/01/15 04:33:31;;;;;;;6.38;0.85;;;;;;;;;;4993869;28;20057;-66
2023/01/15 04:35:58;;;;;;;9.50;1.73;;;;;;;;;;4978944;28;20059;-66
2023/01/15 04:38:24;;;;;;;4.72;1.13;;;;;;;;;;4991480;28;20054;-66
2023/01/15 04:46:21;;;;;;;8.98;1.35;;;;;;;;;;4989202;28;20049;-65
2023/01/15 04:48:47;;;;;;;8.15;2.30;;;;;;;;;;4985478;28;20041;-65
2023/01/15 04:51:14;;;;;;;14.90;2.15;;;;;;;;;;4992227;28;20124;-66
2023/01/15 04:53:40;;;;;;;11.70;2.50;;;;;;;;;;4995053;28;20057;-66
2023/01/15 04:56:06;;;;;;;11.57;1.95;;;;;;;;;;4998086;28;20493;-65
2023/01/15 04:58:33;;;;;;;10.30;1.42;;;;;;;;;;4988509;28;20543;-64
2023/01/15 05:01:01;;;;;;;6.10;1.27;;;;;;;;;;4984691;28;20243;-66
2023/01/15 05:03:28;;;;;;;5.10;1.48;;;;;;;;;;4986066;28;20062;-67
2023/01/15 05:05:54;;;;;;;13.77;1.83;;;;;;;;;;4991578;28;20081;-66
2023/01/15 05:08:20;;;;;;;11.65;1.67;;;;;;;;;;4992951;28;20046;-66
2023/01/15 05:10:46;;;;;;;14.05;2.13;;;;;;;;;;4983283;28;20054;-66
2023/01/15 05:13:13;;;;;;;7.65;1.38;;;;;;;;;;4986043;28;20419;-66
2023/01/15 05:15:41;;;;;;;9.75;1.40;;;;;;;;;;4984282;28;20047;-66
2023/01/15 05:18:08;;;;;;;16.58;2.10;;;;;;;;;;4990033;28;20082;-66
2023/01/15 05:20:37;;;;;;;10.38;1.50;;;;;;;;;;4988853;28;20045;-66
2023/01/15 05:23:03;;;;;;;9.82;1.27;;;;;;;;;;4989855;28;20054;-66
2023/01/15 05:25:29;;;;;;;9.50;1.60;;;;;;;;;;4989841;28;20072;-66
2023/01/15 05:27:56;;;;;;;11.85;2.35;;;;;;;;;;4980162;28;20316;-67
2023/01/15 05:30:22;;;;;;;11.15;1.95;;;;;;;;;;4989540;28;20046;-65
2023/01/15 05:32:48;;;;;;;10.13;2.45;;;;;;;;;;5005684;28;20462;-66
2023/01/15 05:35:15;;;;;;;14.07;1.52;;;;;;;;;;4992133;28;20050;-66
2023/01/15 05:37:41;;;;;;;13.55;1.58;;;;;;;;;;4995622;28;20088;-67
2023/01/15 05:40:07;;;;;;;10.75;2.55;;;;;;;;;;4981290;28;20049;-67
2023/01/15 05:42:34;;;;;;;12.57;1.67;;;;;;;;;;4999851;28;20531;-65
2023/01/15 05:45:00;;;;;;;10.00;1.25;;;;;;;;;;4994088;28;20050;-67
2023/01/15 05:47:26;;;;;;;8.30;1.70;;;;;;;;;;4981097;28;20058;-66
2023/01/15 05:49:52;;;;;;;6.90;1.27;;;;;;;;;;4994866;28;20054;-65
2023/01/15 05:52:18;;;;;;;11.20;1.50;;;;;;;;;;4982497;28;20057;-67
2023/01/15 05:54:45;;;;;;;8.90;1.50;;;;;;;;;;4972522;28;20058;-66
2023/01/15 05:57:11;;;;;;;14.50;3.33;;;;;;;;;;4978768;28;20042;-66
2023/01/15 05:59:38;;;;;;;14.68;1.48;;;;;;;;;;4987258;28;20064;-67
2023/01/15 06:02:04;;;;;;;14.88;2.33;;;;;;;;;;4997724;28;20058;-67
2023/01/15 06:04:30;;;;;;;7.68;1.83;;;;;;;;;;4993993;28;20060;-67
2023/01/15 06:06:57;;;;;;;6.60;1.20;;;;;;;;;;5001101;28;20121;-66
2023/01/15 06:09:24;;;;;;;10.23;1.42;;;;;;;;;;4976204;28;20050;-66
2023/01/15 06:11:50;;;;;;;9.20;1.70;;;;;;;;;;4986521;28;20054;-66
2023/01/15 06:14:16;;;;;;;12.02;1.20;;;;;;;;;;4976977;28;20076;-66
2023/01/15 06:16:43;;;;;;;7.47;1.30;;;;;;;;;;4991055;28;20050;-66
2023/01/15 06:19:10;;;;;;;4.95;0.85;;;;;;;;;;4989405;28;20121;-66
2023/01/15 06:21:36;;;;;;;8.20;1.30;;;;;;;;;;4977075;28;20054;-67
2023/01/15 06:24:03;;;;;;;14.43;1.60;;;;;;;;;;4981717;28;20729;-67
2023/01/15 06:26:29;;;;;;;14.65;1.45;;;;;;;;;;4980855;28;20046;-66
2023/01/15 06:28:55;;;;;;;6.95;1.25;;;;;;;;;;4987169;28;20100;-66
2023/01/15 06:31:22;;;;;;;8.93;1.27;;;;;;;;;;4994900;28;20061;-66
2023/01/15 06:33:49;;;;;;;10.25;2.28;;;;;;;;;;4983040;28;20054;-67
2023/01/15 06:36:17;;;;;;;8.40;1.17;;;;;;;;;;4986407;28;20549;-65
2023/01/15 06:38:44;;;;;;;12.18;1.58;;;;;;;;;;4976280;28;20057;-66
2023/01/15 06:49:31;;;;;;;7.00;1.27;;;;;;;;;;4985740;28;20054;-67
2023/01/15 06:51:57;;;;;;;8.55;1.27;;;;;;;;;;4988490;28;20537;-67
2023/01/15 06:54:24;;;;;;;10.48;1.67;;;;;;;;;;4976694;28;20050;-66
2023/01/15 06:56:50;;;;;;;5.30;0.90;;;;;;;;;;4996148;28;20647;-67
2023/01/15 06:59:17;;;;;;;5.75;1.02;;;;;;;;;;4982531;28;20046;-66
2023/01/15 07:01:44;;;;;;;11.63;1.48;;;;;;;;;;4978055;28;20660;-67
2023/01/15 07:04:10;;;;;;;10.65;1.48;;;;;;;;;;4986287;28;20153;-67
2023/01/15 07:06:37;;;;;;;9.40;1.40;;;;;;;;;;4974177;28;20054;-64
2023/01/15 07:09:03;;;;;;;7.40;1.27;;;;;;;;;;4983235;28;20042;-67
2023/01/15 07:11:30;;;;;;;7.90;1.25;;;;;;;;;;4989960;28;20050;-66
2023/01/15 07:14:05;;;;;;;7.43;1.38;;;;;;;;;;4982386;28;20135;-67
2023/01/15 07:16:35;;;;;;;7.57;0.90;;;;;;;;;;5001545;28;20574;-66
2023/01/15 07:19:02;;;;;;;12.27;1.50;;;;;;;;;;4978465;28;20463;-67
2023/01/15 07:21:28;;;;;;;10.70;1.05;;;;;;;;;;4979201;28;20096;-66
2023/01/15 07:23:57;;;;;;;10.13;1.30;;;;;;;;;;4985179;28;20037;-66
2023/01/15 07:26:24;;;;;;;10.85;1.80;;;;;;;;;;4989981;28;20054;-66
2023/01/15 07:28:50;;;;;;;11.10;1.50;;;;;;;;;;4982095;28;20615;-66
2023/01/15 07:31:16;;;;;;;9.90;1.63;;;;;;;;;;4993909;28;20046;-66
2023/01/15 07:33:43;;;;;;;7.00;1.35;;;;;;;;;;4986099;28;20086;-67
2023/01/15 07:36:09;;;;;;;7.90;1.38;;;;;;;;;;4979062;28;20140;-67
2023/01/15 07:38:35;;;;;;;11.38;1.73;;;;;;;;;;4997642;28;20156;-66
2023/01/15 07:52:02;;;;;;;10.13;1.33;;;;;;;;;;4985366;28;20053;-66
2023/01/15 07:54:28;;;;;;;8.95;1.80;;;;;;;;;;4995908;28;20054;-67
2023/01/15 07:56:55;;;;;;;3.90;0.60;;;;;;;;;;4989088;28;20086;-68
2023/01/15 07:59:23;;;;;;;13.70;1.23;;;;;;;;;;4981675;28;20046;-66
2023/01/15 08:01:50;;;;;;;8.30;1.35;;;;;;;;;;4989162;28;20049;-68
2023/01/15 08:04:17;;;;;;;7.75;0.98;;;;;;;;;;4984923;28;20499;-67
2023/01/15 08:06:43;;;;;;;9.95;1.35;;;;;;;;;;4977025;28;20061;-67
2023/01/15 08:09:09;;;;;;;5.90;1.10;;;;;;;;;;4991926;28;20053;-67
2023/01/15 08:17:06;;;;;;;5.72;1.02;;;;;;;;;;4995634;28;20053;-67
2023/01/15 08:19:32;;;;;;;8.75;1.20;;;;;;;;;;4991361;28;20065;-67
2023/01/15 08:22:01;;;;;;;7.50;1.90;;;;;;;;;;4995571;28;20065;-66
2023/01/15 08:24:28;;;;;;;15.32;1.73;;;;;;;;;;5002906;28;20069;-67
2023/01/15 08:26:54;;;;;;;9.70;1.33;;;;;;;;;;4973268;28;20617;-67
2023/01/15 08:29:21;;;;;;;6.65;1.23;;;;;;;;;;4974890;28;20053;-66
2023/01/15 08:31:47;;;;;;;7.72;1.48;;;;;;;;;;4991446;28;20061;-66
2023/01/15 08:34:14;;;;;;;8.73;1.35;;;;;;;;;;4997775;28;20479;-66
2023/01/15 08:36:40;;;;;;;7.57;1.10;;;;;;;;;;5001359;28;20069;-66
2023/01/15 08:39:06;;;;;;;4.65;1.00;;;;;;;;;;4987595;28;20058;-66
2023/01/15 08:41:33;;;;;;;10.88;1.40;;;;;;;;;;4997351;28;20042;-67
2023/01/15 08:43:59;;;;;;;9.98;2.03;;;;;;;;;;4982489;28;20054;-65
2023/01/15 08:46:25;;;;;;;6.07;1.27;;;;;;;;;;4988238;28;20050;-66
2023/01/15 08:48:54;;;;;;;9.70;1.10;;;;;;;;;;4991513;28;20057;-65
2023/01/15 08:51:21;;;;;;;3.38;0.90;;;;;;;;;;4991022;28;20038;-67
2023/01/15 08:53:47;;;;;;;9.43;1.10;;;;;;;;;;4995913;28;20053;-66
2023/01/15 08:56:15;;;;;;;6.80;1.08;;;;;;;;;;4984730;28;20050;-66
2023/01/15 08:58:41;;;;;;;4.28;0.77;;;;;;;;;;4993199;28;20356;-67
2023/01/15 09:01:09;;;;;;;8.48;1.10;;;;;;;;;;4985891;28;20133;-68
2023/01/15 09:03:35;;;;;;;5.22;1.20;;;;;;;;;;4989993;28;20045;-66
2023/01/15 09:06:02;;;;;;;7.47;0.95;;;;;;;;;;4986620;28;20105;-66
2023/01/15 09:08:28;;;;;;;6.05;1.08;;;;;;;;;;4990367;28;20054;-67
2023/01/15 09:10:58;;;;;;;8.15;1.40;;;;;;;;;;4985619;28;20081;-66
2023/01/15 09:13:25;;;;;;;6.78;1.08;;;;;;;;;;4989724;28;20056;-66
2023/01/15 09:15:51;;;;;;;8.65;1.60;;;;;;;;;;4996467;28;20077;-66
2023/01/15 09:18:19;;;;;;;10.88;1.40;;;;;;;;;;4985247;28;20105;-67
2023/01/15 09:20:46;;;;;;;7.68;1.27;;;;;;;;;;4991957;28;20187;-67
2023/01/15 09:23:13;;;;;;;6.80;1.00;;;;;;;;;;4984075;28;20492;-67
2023/01/15 09:25:40;;;;;;;14.82;2.47;;;;;;;;;;4988006;28;20049;-67
2023/01/15 09:28:06;;;;;;;12.82;1.48;;;;;;;;;;4985164;28;20042;-66
2023/01/15 09:30:33;;;;;;;6.05;1.13;;;;;;;;;;4988170;28;20042;-66
2023/01/15 09:32:59;;;;;;;14.02;1.40;;;;;;;;;;5002463;28;20052;-66
2023/01/15 09:35:25;;;;;;;8.30;1.25;;;;;;;;;;4986264;28;20612;-67
2023/01/15 09:37:52;;;;;;;8.43;1.05;;;;;;;;;;4989119;28;20064;-65
2023/01/15 09:40:38;;;;;;;5.30;1.10;;;;;;;;;;4986231;28;20518;-66
2023/01/15 09:43:07;;;;;;;9.90;1.25;;;;;;;;;;4983444;28;20054;-66
2023/01/15 09:45:39;;;;;;;6.13;1.33;;;;;;;;;;4984970;28;20530;-66
2023/01/15 09:48:23;;;;;;;8.30;1.73;;;;;;;;;;4993936;28;20074;-66
2023/01/15 09:50:59;;;;;;;5.93;1.13;;;;;;;;;;4990509;28;20050;-65
2023/01/15 09:53:34;;;;;;;4.35;0.93;;;;;;;;;;4985342;28;20046;-66
2023/01/15 09:56:01;;;;;;;9.20;1.55;;;;;;;;;;4980486;28;20093;-68
2023/01/15 09:58:32;;;;;;;8.40;1.35;;;;;;;;;;4991730;28;20050;-66
2023/01/15 10:00:58;;;;;;;12.85;1.85;;;;;;;;;;4996090;28;20056;-67
2023/01/15 10:03:31;;;;;;;7.20;1.40;;;;;;;;;;4990729;28;20045;-68
2023/01/15 10:06:02;;;;;;;6.75;1.50;;;;;;;;;;4987645;28;20503;-67
2023/01/15 10:08:31;;;;;;;15.57;1.63;;;;;;;;;;4989028;28;20056;-67
2023/01/15 10:11:05;;;;;;;9.80;1.33;;;;;;;;;;4977079;28;20042;-65
2023/01/15 10:13:42;;;;;;;10.77;1.98;;;;;;;;;;4995705;28;20272;-68
2023/01/15 10:16:09;;;;;;;13.82;1.75;;;;;;;;;;4996846;28;20049;-68
2023/01/15 10:18:36;;;;;;;6.88;0.98;;;;;;;;;;4999413;28;20748;-67
2023/01/15 10:21:06;;;;;;;11.50;1.83;;;;;;;;;;4991633;28;20068;-66
2023/01/15 10:23:34;;;;;;;11.57;2.17;;;;;;;;;;4984203;28;20078;-67
2023/01/15 10:26:04;;;;;;;10.03;1.13;;;;;;;;;;4993116;28;20263;-69
2023/01/15 10:28:31;;;;;;;6.70;1.02;;;;;;;;;;4996424;28;20104;-68
2023/01/15 10:31:12;;;;;;;14.25;1.70;;;;;;;;;;4989225;28;20046;-67
2023/01/15 10:34:05;;;;;;;5.57;1.33;;;;;;;;;;4991688;28;20078;-68
2023/01/15 10:36:35;;;;;;;8.80;1.20;;;;;;;;;;4965182;28;20054;-69
2023/01/15 10:39:21;;;;;;;6.97;1.25;;;;;;;;;;4986849;28;20057;-68
2023/01/15 10:41:54;;;;;;;9.52;1.23;;;;;;;;;;4991123;28;20756;-66
2023/01/15 10:44:23;;;;;;;7.07;1.27;;;;;;;;;;4984902;28;20049;-68
2023/01/15 10:46:57;;;;;;;6.82;1.13;;;;;;;;;;4988604;28;20558;-67
2023/01/15 10:49:26;;;;;;;6.95;1.38;;;;;;;;;;4983367;28;20513;-65
2023/01/15 10:51:55;;;;;;;6.13;1.00;;;;;;;;;;4980544;28;20065;-66
2023/01/15 10:54:27;;;;;;;8.88;1.50;;;;;;;;;;4991339;28;20042;-67
2023/01/15 10:57:00;;;;;;;8.05;1.20;;;;;;;;;;4987415;28;20117;-69
2023/01/15 10:59:35;;;;;;;3.97;1.25;;;;;;;;;;4999864;28;20483;-67
2023/01/15 11:02:02;;;;;;;7.63;1.45;;;;;;;;;;4989432;28;20042;-67
2023/01/15 11:04:31;;;;;;;8.27;1.23;;;;;;;;;;4989956;28;20084;-67
2023/01/15 11:06:59;;;;;;;12.27;1.35;;;;;;;;;;4984112;28;20125;-68
2023/01/15 11:09:30;;;;;;;;;;;;;;;;;;4990334;28;20061;-65
2023/01/15 11:20:56;;;;;;;12.07;2.03;;;;;;;;;;4983055;28;20046;-68
2023/01/15 11:23:23;;;;;;;6.75;1.35;;;;;;;;;;4915410;29;20138;-65
2023/01/15 11:25:52;;;;;;;7.55;1.02;;;;;;;;;;4914540;29;20051;-68
2023/01/15 11:28:28;;;;;;;7.63;1.40;;;;;;;;;;4917472;29;20108;-69
2023/01/15 11:30:55;;;;;;;6.75;1.40;;;;;;;;;;4895917;29;20471;-69
2023/01/15 11:33:26;;;;;;;8.73;1.50;;;;;;;;;;4908411;29;20052;-67
2023/01/15 11:35:57;;;;;;;12.00;1.70;;;;;;;;;;4912544;29;20139;-66
2023/01/15 11:38:25;;;;;;;8.25;1.40;;;;;;;;;;4914077;29;20095;-67
2023/01/15 11:40:56;;;;;;;6.95;1.85;;;;;;;;;;4919415;29;20066;-67
2023/01/15 11:52:07;;;;;;;9.20;1.75;;;;;;;;;;4920273;29;20059;-68
2023/01/15 11:54:36;;;;;;;8.90;1.50;;;;;;;;;;4924891;29;20047;-70
2023/01/15 11:57:02;;;;;;;10.00;1.50;;;;;;;;;;4945876;28;20145;-69
2023/01/15 11:59:29;;;;;;;7.30;1.52;;;;;;;;;;4989791;28;20050;-65
2023/01/15 12:01:59;;;;;;;7.47;1.58;;;;;;;;;;4990780;28;20054;-67
2023/01/15 12:04:29;;;;;;;10.10;1.83;;;;;;;;;;4986816;28;20393;-68
2023/01/15 12:06:56;;;;;;;4.38;1.10;;;;;;;;;;5001152;28;20091;-67
2023/01/15 12:09:31;;;;;;;9.93;1.35;;;;;;;;;;4991729;28;20057;-65
2023/01/15 12:12:24;;;;;;;6.00;1.00;;;;;;;;;;4994446;28;20058;-67
2023/01/15 12:15:09;;;;;;;10.80;1.98;;;;;;;;;;4979297;28;20486;-67
2023/01/15 12:17:38;;;;;;;4.22;1.30;;;;;;;;;;4991493;28;20197;-67
2023/01/15 12:20:20;;;;;;;6.53;1.48;;;;;;;;;;4998148;28;20053;-67
2023/01/15 12:22:54;;;;;;;9.50;1.85;;;;;;;;;;4986558;28;20049;-67
2023/01/15 12:25:30;;;;;;;12.90;1.83;;;;;;;;;;5002046;28;20084;-67
2023/01/15 12:27:58;;;;;;;8.15;1.38;;;;;;;;;;4988064;28;20061;-67
2023/01/15 12:30:32;;;;;;;7.13;1.35;;;;;;;;;;4992383;28;20058;-67
2023/01/15 12:33:07;;;;;;;8.82;1.23;;;;;;;;;;4983871;28;20057;-66
2023/01/15 12:35:36;;;;;;;6.95;1.30;;;;;;;;;;4987525;28;20081;-67
2023/01/15 12:38:02;;;;;;;;;;;;;;;;;;5003140;28;20053;-65
2023/01/15 12:40:39;;;;;;;5.40;1.77;;;;;;;;;;4983848;28;20346;-67
2023/01/15 12:45:58;;;;;;;3.20;0.93;;;;;;;;;;4980889;28;20054;-66
2023/01/15 12:48:30;;;;;;;5.13;1.00;;;;;;;;;;4986313;28;20188;-67
2023/01/15 12:50:59;;;;;;;5.20;1.60;;;;;;;;;;4992417;28;20119;-67
2023/01/15 12:53:37;;;;;;;6.18;1.40;;;;;;;;;;4998158;28;20052;-67
2023/01/15 12:56:03;;;;;;;;;;;;;;;;;;4978979;28;20045;-67
2023/01/15 12:58:30;;;;;;;6.00;1.10;;;;;;;;;;4986939;28;19925;-68
2023/01/15 13:01:11;;;;;;;2.55;0.98;;;;;;;;;;4993626;28;20096;-68
2023/01/15 13:03:48;;;;;;;7.65;1.50;;;;;;;;;;4991909;28;20463;-68
2023/01/15 13:06:15;;;;;;;5.20;1.58;;;;;;;;;;4997379;28;20418;-66
2023/01/15 13:08:42;;;;;;;4.53;1.08;;;;;;;;;;4987908;28;20054;-69
2023/01/15 13:11:12;;;;;;;3.08;1.10;;;;;;;;;;4980731;28;20058;-66
2023/01/15 13:13:39;;;;;;;5.75;1.27;;;;;;;;;;4981140;28;20058;-68
2023/01/15 13:16:15;;;;;;;8.63;1.17;;;;;;;;;;5003797;28;20053;-68
2023/01/15 13:19:00;;;;;;;7.75;1.10;;;;;;;;;;4995877;28;20058;-68
2023/01/15 13:21:28;;;;;;;7.20;1.52;;;;;;;;;;4991760;28;20061;-68
2023/01/15 13:24:08;;;;;;;6.23;1.40;;;;;;;;;;4989498;28;20056;-66
2023/01/15 13:26:54;;;;;;;4.60;1.23;;;;;;;;;;4977839;28;20287;-67
2023/01/15 13:29:29;;;;;;;5.05;0.95;;;;;;;;;;4999546;28;20096;-67
2023/01/15 13:31:58;;;;;;;10.70;1.65;;;;;;;;;;4984052;28;20074;-68
2023/01/15 13:34:24;;;;;;;;;;;;;;;;;;4994053;28;20054;-67
2023/01/15 13:36:51;;;;;;;6.07;1.80;;;;;;;;;;4985098;28;19968;-68
2023/01/15 13:39:19;;;;;;;6.45;1.70;;;;;;;;;;4982561;28;20065;-67
2023/01/15 13:44:36;;;;;;;7.93;1.52;;;;;;;;;;4995067;28;20046;-67
2023/01/15 13:47:02;;;;;;;6.15;1.35;;;;;;;;;;4984607;28;20543;-66
2023/01/15 13:49:34;;;;;;;10.30;1.52;;;;;;;;;;4986668;28;20042;-67
2023/01/15 13:52:03;;;;;;;5.13;1.45;;;;;;;;;;4993545;28;20050;-67
2023/01/15 13:54:30;;;;;;;5.25;1.10;;;;;;;;;;4977934;28;20150;-66
2023/01/15 13:57:06;;;;;;;5.80;1.00;;;;;;;;;;4985015;28;20072;-68
2023/01/15 13:59:33;;;;;;;3.28;1.00;;;;;;;;;;4982923;28;20412;-67
2023/01/15 14:01:59;;;;;;;6.85;1.55;;;;;;;;;;4994987;28;20415;-68
2023/01/15 14:04:34;;;;;;;4.85;1.42;;;;;;;;;;4985697;28;20591;-68
2023/01/15 14:07:00;;;;;;;7.15;1.92;;;;;;;;;;4995562;28;20049;-68
2023/01/15 14:09:33;;;;;;;9.43;1.40;;;;;;;;;;4993425;28;20054;-67
2023/01/15 14:12:14;;;;;;;6.38;1.40;;;;;;;;;;4988956;28;20056;-68
2023/01/15 14:14:59;;;;;;;5.15;1.38;;;;;;;;;;4990701;28;20387;-68
2023/01/15 14:17:38;;;;;;;8.13;1.40;;;;;;;;;;4989780;28;20514;-69
2023/01/15 14:20:13;;;;;;;6.60;2.08;;;;;;;;;;4985186;28;20116;-68
2023/01/15 14:22:58;;;;;;;6.90;1.50;;;;;;;;;;4975000;28;20065;-66
2023/01/15 14:25:34;;;;;;;5.82;1.42;;;;;;;;;;4999694;28;20058;-67
2023/01/15 14:28:09;;;;;;;5.15;1.63;;;;;;;;;;4986691;28;20046;-67
2023/01/15 14:30:50;;;;;;;6.75;1.73;;;;;;;;;;4998109;28;20058;-68
2023/01/15 14:33:23;;;;;;;4.95;1.27;;;;;;;;;;4978824;28;20401;-67
2023/01/15 14:35:50;;;;;;;6.63;1.42;;;;;;;;;;4989735;28;20503;-67
2023/01/15 14:38:19;;;;;;;6.50;1.48;;;;;;;;;;4991402;28;20049;-68
2023/01/15 14:41:05;;;;;;;6.93;1.20;;;;;;;;;;4984708;28;20050;-67
2023/01/15 14:43:34;;;;;;;5.20;1.35;;;;;;;;;;4994115;28;20054;-69
2023/01/15 14:46:13;;;;;;;5.88;1.55;;;;;;;;;;4990403;28;20042;-67
2023/01/15 14:48:40;;;;;;;3.30;1.25;;;;;;;;;;4984434;28;20574;-67
2023/01/15 14:51:17;;;;;;;14.95;1.60;;;;;;;;;;4978134;28;20050;-67
2023/01/15 14:53:47;;;;;;;4.87;1.40;;;;;;;;;;4989521;28;20419;-68
2023/01/15 14:56:19;;;;;;;7.32;2.00;;;;;;;;;;4980323;28;21130;-68
2023/01/15 15:00:18;;;;;;;6.95;1.60;;;;;;;6.09;100.00;99829.72;5047224;28;20389;-65
2023/01/15 15:02:47;;;;;;;6.40;1.77;;;;;;;6.08;100.00;99838.50;5029956;28;20057;-65
2023/01/15 15:05:20;;;;;;;6.07;1.83;;;;;;;6.08;100.00;99849.72;5035885;28;20131;-65
2023/01/15 15:07:51;;;;;;;11.95;2.08;;;;;;;6.09;100.00;99843.53;5032727;28;20045;-65
2023/01/15 15:10:24;;;;;;;8.23;1.60;;;;;;;6.06;100.00;99849.03;5040987;28;20049;-64
2023/01/15 15:13:21;;;;;;;9.85;2.42;;;;;;;6.11;100.00;99846.00;5027192;28;20053;-65
2023/01/15 15:16:03;;;;;;;7.50;1.73;;;;;;;6.10;100.00;99849.59;5034408;28;20068;-65
2023/01/15 15:18:35;;;;;;;5.78;1.40;;;;;;;6.09;100.00;99856.56;5029727;28;20045;-65
2023/01/15 15:21:05;;;;;;;12.48;1.95;;;;;;;5.90;100.00;99878.22;5036026;28;20058;-66
2023/01/15 15:23:43;;;;;;;8.85;1.95;;;;;;;5.86;100.00;99856.03;5038777;28;20512;-66
2023/01/15 15:26:29;;;;;;;7.47;1.73;;;;;;;5.77;100.00;99862.06;5031321;28;20049;-65
2023/01/15 15:29:00;;;;;;;5.93;1.77;;;;;;;5.47;100.00;99883.84;5037248;28;20132;-65
2023/01/15 15:31:30;;;;;;;6.95;2.30;;;;;;;5.46;100.00;99875.22;5029447;28;20068;-66
2023/01/15 15:33:57;;;;;;;7.10;2.35;;;;;;;5.40;100.00;99890.56;5032788;28;20049;-65
2023/01/15 15:36:28;;;;;;;9.07;1.88;;;;;;;5.39;100.00;99860.28;5033280;28;20490;-66
2023/01/15 15:39:03;;;;;;;4.45;1.67;;;;;;;5.44;100.00;99879.75;5041333;28;20052;-66
2023/01/15 15:50:27;;;;;;;8.17;1.60;;;;;;;5.30;100.00;99903.56;5019592;28;20552;-67
2023/01/15 15:52:56;;;;;;;6.60;1.80;;;;;;;5.32;100.00;99870.44;5035837;28;20045;-67
2023/01/15 15:55:30;;;;;;;8.38;1.48;;;;;;;5.35;100.00;99864.94;5031932;28;20061;-66